Rockwell, NC (28138)

10:08 AM EST on March 03, 2015 (GMT -0500)
RockGrove | Change Station
CLOSE
Current Station
Personal Weather Station
Location: Salisbury, NC
Elevation: 856 ft
Nearby Weather Stations

Elev 856 ft 35.55 °N, 80.48 °W | Updated 15 seconds ago

Overcast
Overcast
37.3 °F
Feels Like 32 °F
N
7.0
Wind Variable Wind from SE
Gusts 10.0 mph

Today
High -- | Low -- °F
--% Chance of Precip.
Yesterday
High -- | Low -- °F
Precip. -- in
6:49 AM 6:18 PM
Waxing Gibbous, 96% visible
Pressure 30.36 in
Visibility 10.0 miles
Clouds Overcast 2100 ft
Windchill 32 °F
Dew Point 31 °F
Humidity 78%
Rainfall 0.02 in
Snow Depth Not available.
UV 1 out of 12
Pollen 3.20 out of 12
Air Quality Not available.
Flu Activity Not available.
METAR KRUQ 031455Z AUTO 10006KT 10SM OVC021 03/00 A3036 RMK AO2 60004 T00301001

More Conditions Fewer Conditions

Pressure 30.36 in
Visibility 10.0 miles
Clouds Overcast 2100 ft
Windchill 32 °F
Dew Point 31 °F
Humidity 78%
Rainfall 0.02 in
Snow Depth Not available.
UV 1 out of 12
Pollen 3.20 out of 12
Air Quality Not available.
Flu Activity Not available.
METAR KRUQ 031455Z AUTO 10006KT 10SM OVC021 03/00 A3036 RMK AO2 60004 T00301001

More Conditions Fewer Conditions

10-Day Weather Forecast

Almanac

Astronomy

Mar. 03, 2015 Rise Set
Actual Time
Civil Twilight
Nautical Twilight
Astronomical Twilight
Moon
Length of Visible Light
Length of Day
Tomorrow will be .
, % of the Moon is Illuminated

Today's Extremes

State Highs State Lows

Community

WunderPhotos

Upload Photos

1,802,133 photos uploaded!

WunderBlogs® & News

Nearby

Air Quality

  Air Quality AQ Index Pollutant
Not available.

Snow Depth

Station Depth Elevation

Earthquake Activity

City Distance Mag. Time & Date
Minimum magnitude displayed is 2.5.

Coastal Water Temperatures

Place Temperature

Nearby Weather Stations